Time;durP1;ratioP1;P1;durP2;ratioP2;P2;SDS_P1;SDS_P2;PMS_P1;PMS_P2;Temp;Humidity;BMP_temperature;BMP_pressure;BME280_temperature;BME280_humidity;BME280_pressure;Samples;Min_cycle;Max_cycle;Signal;HPM_P1;HPM_P2
2022/01/17 00:02:22;;;;;;;34.88;16.20;;;;;;;-1.00;69.31;100870.59;5069728;28;20412;-21
2022/01/17 00:04:48;;;;;;;33.88;15.55;;;;;;;-0.61;67.02;100850.78;5069794;28;20404;-21
2022/01/17 00:07:14;;;;;;;26.65;13.88;;;;;;;-0.33;66.41;100868.59;5069318;28;20017;-21
2022/01/17 00:09:39;;;;;;;25.70;13.73;;;;;;;-0.49;66.58;100876.91;5051703;28;20128;-21
2022/01/17 00:12:05;;;;;;;28.17;15.45;;;;;;;-0.60;66.59;100875.19;5069808;28;20054;-20
2022/01/17 00:14:38;;;;;;;27.60;14.38;;;;;;;-0.46;65.63;100871.44;5069684;28;20029;-21
2022/01/17 00:17:40;;;;;;;36.78;20.55;;;;;;;-0.39;67.17;100869.94;5069363;28;20036;-21
2022/01/17 00:19:57;;;;;;;42.75;23.23;;;;;;;-0.56;67.74;100870.53;5066059;28;20067;-21
2022/01/17 00:22:22;;;;;;;39.38;20.02;;;;;;;-0.62;67.29;100864.00;5069693;28;20131;-21
2022/01/17 00:24:50;;;;;;;39.30;20.65;;;;;;;-0.85;68.01;100858.88;5051673;28;20068;-20
2022/01/17 00:27:16;;;;;;;33.88;18.45;;;;;;;-0.91;67.64;100827.13;5069112;28;20475;-20
2022/01/17 00:29:41;;;;;;;36.55;20.50;;;;;;;-1.05;68.44;100859.66;5069439;28;20043;-21
2022/01/17 00:32:07;;;;;;;37.60;20.92;;;;;;;-0.96;67.82;100837.97;5050322;28;20025;-21
2022/01/17 00:34:32;;;;;;;42.55;22.77;;;;;;;-0.76;67.20;100833.69;5051249;28;20528;-21
2022/01/17 00:36:58;;;;;;;35.25;20.23;;;;;;;-1.62;69.30;100845.84;5068943;28;20093;-21
2022/01/17 00:39:24;;;;;;;36.80;19.27;;;;;;;-1.73;69.19;100825.78;5069119;28;20032;-21
2022/01/17 00:41:50;;;;;;;31.88;18.10;;;;;;;-1.03;67.92;100849.88;5068902;28;20110;-21
2022/01/17 00:44:20;;;;;;;29.45;16.02;;;;;;;-1.05;66.48;100847.38;5068993;28;20036;-21
2022/01/17 00:46:45;;;;;;;29.77;15.55;;;;;;;-1.18;66.37;100806.66;5068762;28;20036;-21
2022/01/17 00:49:10;;;;;;;27.98;14.90;;;;;;;-1.37;67.44;100831.66;5068538;28;20040;-21
2022/01/17 00:51:36;;;;;;;29.80;15.27;;;;;;;-1.05;67.02;100836.91;5068904;28;20029;-21
2022/01/17 00:54:01;;;;;;;31.05;15.13;;;;;;;-1.13;67.10;100834.09;5068724;28;20044;-21
2022/01/17 00:56:27;;;;;;;30.45;16.45;;;;;;;-0.91;66.06;100833.19;5050853;28;20062;-21
2022/01/17 00:58:52;;;;;;;36.67;19.80;;;;;;;-1.28;66.87;100823.06;5068609;28;20480;-21
2022/01/17 01:01:18;;;;;;;38.67;19.73;;;;;;;-1.03;66.68;100802.78;5068204;28;20078;-21
2022/01/17 01:03:43;;;;;;;38.38;17.10;;;;;;;-1.46;66.01;100808.84;5050572;28;20416;-21
2022/01/17 01:06:09;;;;;;;34.53;16.02;;;;;;;-1.42;66.83;100826.78;5068820;28;20497;-22
2022/01/17 01:08:34;;;;;;;31.23;16.02;;;;;;;-1.14;66.00;100813.28;5068671;28;20029;-21
2022/01/17 01:11:00;;;;;;;39.85;21.83;;;;;;;-1.33;66.60;100798.22;5068282;28;20028;-21
2022/01/17 01:13:28;;;;;;;27.52;13.95;;;;;;;-1.31;66.63;100797.19;5068263;28;20028;-21
2022/01/17 01:21:33;;;;;;;27.00;14.02;;;;;;;-1.71;68.35;100776.81;5051037;28;20504;-20
2022/01/17 01:29:17;;;;;;;26.27;13.23;;;;;;;-2.14;69.36;100764.50;5068161;28;20614;-21
2022/01/17 01:31:50;;;;;;;30.42;13.60;;;;;;;-1.80;68.17;100751.38;5068232;28;20044;-21
2022/01/17 01:34:17;;;;;;;30.08;13.25;;;;;;;-1.61;67.23;100748.16;5051249;28;20025;-20
2022/01/17 01:36:46;;;;;;;27.80;14.13;;;;;;;-1.57;67.54;100767.88;5049980;28;20032;-21
2022/01/17 01:39:12;;;;;;;27.17;13.57;;;;;;;-2.43;69.38;100757.13;5067737;28;20028;-21
2022/01/17 01:41:42;;;;;;;28.08;14.25;;;;;;;-3.08;71.11;100729.03;5067800;28;20036;-21
2022/01/17 01:44:15;;;;;;;24.83;13.05;;;;;;;-2.98;70.75;100758.69;5048912;28;20020;-22
2022/01/17 01:46:41;;;;;;;27.02;14.15;;;;;;;-2.32;69.00;100743.25;5049856;28;20036;-21
2022/01/17 01:49:07;;;;;;;28.33;14.25;;;;;;;-1.93;68.89;100740.25;5067641;28;20534;-21
2022/01/17 01:51:32;;;;;;;29.50;14.05;;;;;;;-1.92;69.03;100715.75;5049600;28;20044;-21
2022/01/17 01:53:57;;;;;;;29.50;15.05;;;;;;;-1.72;68.36;100722.00;5068002;28;20028;-21
2022/01/17 01:56:23;;;;;;;26.40;14.27;;;;;;;-1.86;68.46;100715.25;5067594;28;20796;-21
2022/01/17 01:58:48;;;;;;;27.35;13.60;;;;;;;-1.91;67.12;100713.03;5067666;28;20408;-21
2022/01/17 02:01:14;;;;;;;33.35;17.45;;;;;;;-2.78;69.06;100694.53;5049410;28;20028;-21
2022/01/17 02:03:39;;;;;;;28.13;14.75;;;;;;;-2.76;70.17;100683.97;5067600;28;20043;-20
2022/01/17 02:06:05;;;;;;;23.02;13.10;;;;;;;-2.53;70.00;100710.97;5067316;28;20033;-21
2022/01/17 02:08:30;;;;;;;28.10;14.02;;;;;;;-2.38;69.03;100690.66;5067513;28;20082;-20
2022/01/17 02:10:57;;;;;;;28.55;14.68;;;;;;;-2.12;68.01;100704.28;5067629;28;20025;-21
2022/01/17 02:13:22;;;;;;;30.88;16.17;;;;;;;-2.16;67.27;100680.16;5067279;28;20114;-20
2022/01/17 02:15:49;;;;;;;35.17;17.73;;;;;;;-2.06;68.98;100704.63;5067640;28;20047;-21
2022/01/17 02:18:22;;;;;;;35.35;16.42;;;;;;;-2.15;69.96;100694.88;5067286;28;20115;-21
2022/01/17 02:21:09;;;;;;;31.60;16.05;;;;;;;-1.90;68.62;100709.47;5050250;28;20093;-21
2022/01/17 02:23:33;;;;;;;29.05;14.73;;;;;;;-1.72;67.25;100717.59;5067047;28;20083;-22
2022/01/17 02:25:58;;;;;;;30.45;14.93;;;;;;;-1.60;67.16;100705.31;5067532;28;20435;-20
2022/01/17 02:28:24;;;;;;;28.42;13.82;;;;;;;-1.89;67.68;100686.75;5067292;28;20090;-22
2022/01/17 02:30:50;;;;;;;27.63;14.27;;;;;;;-1.96;68.32;100696.88;5067207;28;20037;-21
2022/01/17 02:33:15;;;;;;;28.67;14.30;;;;;;;-1.97;67.75;100697.00;5067101;28;20514;-21
2022/01/17 02:35:40;;;;;;;26.45;14.27;;;;;;;-1.71;67.54;100708.81;5067329;28;20032;-21
2022/01/17 02:38:06;;;;;;;32.40;15.82;;;;;;;-2.20;68.18;100691.00;5032396;28;20036;-21
2022/01/17 02:40:31;;;;;;;30.10;14.27;;;;;;;-2.30;69.09;100706.56;5067139;28;20455;-22
2022/01/17 02:43:05;;;;;;;27.48;14.95;;;;;;;-2.61;70.55;100708.94;5048719;28;20025;-21
2022/01/17 02:46:24;;;;;;;30.90;14.50;;;;;;;-2.00;69.12;100707.69;5049825;28;20039;-21
2022/01/17 02:48:19;;;;;;;29.45;13.57;;;;;;;-1.70;67.85;100707.03;5066116;28;20055;-22
2022/01/17 02:50:45;;;;;;;27.92;13.85;;;;;;;-1.74;66.55;100688.13;5067343;28;20051;-21
2022/01/17 02:53:12;;;;;;;28.65;14.50;;;;;;;-1.49;65.89;100702.69;5066489;28;20469;-21
2022/01/17 02:55:48;;;;;;;27.73;15.07;;;;;;;-2.07;67.42;100665.53;5051719;28;20090;-21
2022/01/17 02:58:14;;;;;;;33.58;14.20;;;;;;;-2.05;67.53;100693.19;5070603;28;20036;-21
2022/01/17 03:00:39;;;;;;;31.48;15.68;;;;;;;-2.09;67.78;100698.78;5070941;28;20579;-21
2022/01/17 03:03:08;;;;;;;31.83;15.60;;;;;;;-2.30;68.20;100651.69;5070613;28;20548;-21
2022/01/17 03:05:34;;;;;;;36.63;17.75;;;;;;;-2.26;69.60;100684.47;5053130;28;20054;-21
2022/01/17 03:07:59;;;;;;;35.97;16.45;;;;;;;-2.38;70.44;100688.84;5070763;28;20480;-22
2022/01/17 03:13:01;;;;;;;39.65;18.50;;;;;;;-2.32;72.69;100687.56;5070718;28;20032;-21
2022/01/17 03:15:26;;;;;;;37.67;17.17;;;;;;;-2.63;71.25;100663.81;5070579;28;20040;-21
2022/01/17 03:17:53;;;;;;;32.05;16.33;;;;;;;-2.31;69.29;100691.81;5052460;28;20094;-21
2022/01/17 03:20:18;;;;;;;34.08;15.50;;;;;;;-2.34;68.72;100684.22;5070069;28;20067;-21
2022/01/17 03:22:44;;;;;;;29.42;15.43;;;;;;;-2.53;67.78;100649.09;5070167;28;20036;-21
2022/01/17 03:25:10;;;;;;;30.05;17.90;;;;;;;-2.51;68.55;100672.50;5069633;28;20455;-21
2022/01/17 03:27:35;;;;;;;28.52;14.73;;;;;;;-2.51;68.27;100669.88;5070535;28;20020;-21
2022/01/17 03:30:00;;;;;;;28.23;14.90;;;;;;;-2.42;69.48;100663.94;5070338;28;20040;-21
2022/01/17 03:32:26;;;;;;;31.50;16.17;;;;;;;-2.07;67.69;100658.50;5070064;28;20054;-22
2022/01/17 03:34:54;;;;;;;32.70;15.40;;;;;;;-2.76;69.58;100653.47;5052053;28;20028;-20
2022/01/17 03:37:19;;;;;;;30.83;15.57;;;;;;;-3.02;70.57;100658.09;5069703;28;20071;-21
2022/01/17 03:39:45;;;;;;;31.27;15.95;;;;;;;-2.98;68.87;100653.47;5069837;28;20036;-22
2022/01/17 03:42:10;;;;;;;27.27;14.65;;;;;;;-3.24;68.64;100664.94;5052275;28;20032;-21
2022/01/17 03:44:35;;;;;;;31.50;15.40;;;;;;;-3.14;69.16;100646.00;5052257;28;20032;-21
2022/01/17 03:47:01;;;;;;;31.30;14.65;;;;;;;-3.14;69.33;100646.81;5069881;28;20040;-21
2022/01/17 03:49:26;;;;;;;31.17;15.25;;;;;;;-3.28;69.96;100653.06;5070057;28;20028;-20
2022/01/17 03:51:52;;;;;;;31.35;16.08;;;;;;;-2.80;68.43;100635.56;5070107;28;20463;-21
2022/01/17 03:54:17;;;;;;;29.13;14.63;;;;;;;-3.64;70.60;100656.63;5051752;28;20033;-21
2022/01/17 03:56:43;;;;;;;25.58;13.85;;;;;;;-3.76;71.20;100647.94;5069747;28;20082;-22
2022/01/17 03:59:08;;;;;;;28.92;14.93;;;;;;;-3.80;70.64;100610.00;5069604;28;20032;-21
2022/01/17 04:01:34;;;;;;;31.63;18.55;;;;;;;-2.77;68.28;100640.56;5051681;28;20025;-21
2022/01/17 04:03:59;;;;;;;27.90;16.05;;;;;;;-2.65;69.41;100644.84;5069654;28;20025;-21
2022/01/17 04:06:26;;;;;;;31.65;16.55;;;;;;;-2.32;68.03;100630.09;5068639;28;20028;-21
2022/01/17 04:08:51;;;;;;;30.23;16.98;;;;;;;-2.30;67.89;100638.63;5069432;28;20412;-21
2022/01/17 04:11:17;;;;;;;33.50;17.88;;;;;;;-1.96;66.56;100641.16;5051409;28;20024;-21
2022/01/17 04:13:42;;;;;;;43.47;23.67;;;;;;;-1.62;65.34;100647.09;5069520;28;20032;-21
2022/01/17 04:16:08;;;;;;;55.70;31.27;;;;;;;-1.56;64.96;100653.59;5069448;28;20032;-21
2022/01/17 04:18:33;;;;;;;39.63;20.85;;;;;;;-1.79;65.28;100643.25;5069217;28;20482;-21
2022/01/17 04:21:02;;;;;;;57.13;30.95;;;;;;;-1.90;66.76;100651.09;5051004;28;20059;-21
2022/01/17 04:23:27;;;;;;;;;;;;;;;-1.77;66.34;100658.81;5069409;28;20097;-21
2022/01/17 04:25:53;;;;;;;45.50;24.02;;;;;;;-1.60;64.84;100654.81;5069626;28;19939;-21
2022/01/17 04:28:19;;;;;;;175.43;85.00;;;;;;;-2.47;67.36;100632.94;5069438;28;20039;-21
2022/01/17 04:30:44;;;;;;;170.65;91.90;;;;;;;-2.34;68.66;100658.09;5069109;28;20032;-21
2022/01/17 04:33:10;;;;;;;116.90;62.55;;;;;;;-3.03;70.20;100640.78;5049698;28;20109;-21
2022/01/17 04:35:35;;;;;;;83.68;48.78;;;;;;;-3.25;72.66;100663.28;5068775;28;20047;-21
2022/01/17 04:38:09;;;;;;;74.82;40.17;;;;;;;-3.61;72.26;100645.16;5068902;28;20464;-21
2022/01/17 04:40:36;;;;;;;51.78;23.30;;;;;;;-4.09;72.05;100631.19;5069267;28;20492;-21
2022/01/17 04:46:08;;;;;;;43.28;21.95;;;;;;;-3.28;69.47;100632.19;5033581;28;20037;-21
2022/01/17 04:48:34;;;;;;;45.17;22.33;;;;;;;-3.40;69.18;100617.47;5069216;28;20507;-21
2022/01/17 04:50:59;;;;;;;48.53;24.30;;;;;;;-2.92;68.22;100663.44;5068624;28;20033;-21
2022/01/17 04:53:26;;;;;;;61.72;30.48;;;;;;;-3.31;69.66;100644.63;5068761;28;20021;-21
2022/01/17 04:55:51;;;;;;;78.63;36.78;;;;;;;-3.35;70.56;100657.09;5050726;28;20114;-21
2022/01/17 04:58:17;;;;;;;74.93;35.40;;;;;;;-3.23;71.04;100668.34;5068530;28;20531;-21
2022/01/17 05:00:48;;;;;;;74.60;38.70;;;;;;;-2.81;69.64;100652.19;5050495;28;20048;-21
2022/01/17 05:03:17;;;;;;;71.13;34.40;;;;;;;-2.80;69.40;100636.38;5068049;28;20090;-21
2022/01/17 05:05:43;;;;;;;59.45;30.65;;;;;;;-3.08;70.94;100653.34;5068258;28;20504;-21
2022/01/17 05:08:08;;;;;;;80.63;34.35;;;;;;;-2.95;70.77;100648.84;5050158;28;20058;-20
2022/01/17 05:10:34;;;;;;;68.72;32.90;;;;;;;-2.62;70.22;100660.25;5050608;28;20035;-21
2022/01/17 05:12:59;;;;;;;72.72;40.05;;;;;;;-2.04;67.02;100655.66;5068007;28;20101;-21
2022/01/17 05:15:35;;;;;;;80.15;38.30;;;;;;;-2.40;67.54;100637.69;5068247;28;20039;-22
2022/01/17 05:18:23;;;;;;;78.82;37.72;;;;;;;-2.73;68.64;100642.00;5050182;28;20083;-21
2022/01/17 05:20:46;;;;;;;96.00;42.15;;;;;;;-2.34;67.96;100652.88;5068048;28;20118;-21
2022/01/17 05:23:12;;;;;;;79.80;38.05;;;;;;;-2.35;67.31;100645.97;5067746;28;20028;-21
2022/01/17 05:25:37;;;;;;;62.35;31.23;;;;;;;-1.82;65.88;100643.47;5068091;28;20036;-21
2022/01/17 05:28:03;;;;;;;61.78;31.50;;;;;;;-2.03;66.08;100653.88;5067680;28;20036;-21
2022/01/17 05:30:29;;;;;;;66.93;33.95;;;;;;;-2.73;67.68;100642.00;5067917;28;20111;-21
2022/01/17 05:32:54;;;;;;;64.35;33.20;;;;;;;-2.53;67.25;100633.44;5067839;28;20043;-20
2022/01/17 05:35:20;;;;;;;51.33;27.13;;;;;;;-2.87;68.75;100646.47;5067465;28;20037;-21
2022/01/17 05:37:46;;;;;;;61.47;28.92;;;;;;;-3.04;69.43;100639.94;5049610;28;20534;-21
2022/01/17 05:40:13;;;;;;;69.85;32.70;;;;;;;-2.92;68.71;100611.22;5067526;28;20039;-21
2022/01/17 05:42:38;;;;;;;73.13;36.13;;;;;;;-3.58;69.89;100634.47;5067638;28;20024;-21
2022/01/17 05:45:04;;;;;;;81.20;38.20;;;;;;;-3.82;71.11;100627.53;5067567;28;20039;-21
2022/01/17 05:47:30;;;;;;;77.38;37.53;;;;;;;-3.77;71.96;100630.63;5049687;28;20028;-21
2022/01/17 05:49:57;;;;;;;81.57;38.28;;;;;;;-3.02;69.04;100621.56;5067734;28;20564;-22
2022/01/17 05:52:23;;;;;;;81.60;38.22;;;;;;;-2.72;68.30;100625.34;5067710;28;20647;-21
2022/01/17 05:54:48;;;;;;;89.70;40.45;;;;;;;-2.90;68.75;100610.19;5067599;28;20043;-21
2022/01/17 05:57:14;;;;;;;90.00;41.13;;;;;;;-2.63;68.43;100624.66;5067017;28;20435;-20
2022/01/17 05:59:40;;;;;;;92.15;42.22;;;;;;;-2.54;67.98;100616.09;5067531;28;20455;-22
2022/01/17 06:02:05;;;;;;;96.55;43.40;;;;;;;-2.49;67.90;100639.25;5049548;28;20043;-21
2022/01/17 06:04:31;;;;;;;129.63;50.75;;;;;;;-2.51;68.14;100604.59;5067234;28;20078;-21
2022/01/17 06:06:57;;;;;;;138.10;52.72;;;;;;;-2.28;68.23;100634.13;5067256;28;20028;-21
2022/01/17 06:09:22;;;;;;;135.07;51.10;;;;;;;-2.64;68.67;100622.97;5067688;28;20036;-21
2022/01/17 06:11:48;;;;;;;117.07;47.55;;;;;;;-2.55;69.34;100630.13;5048997;28;20036;-21
2022/01/17 06:14:17;;;;;;;101.80;41.58;;;;;;;-2.21;67.85;100627.44;5067416;28;20040;-21
2022/01/17 06:16:43;;;;;;;66.40;31.70;;;;;;;-2.23;67.95;100624.97;5067274;28;20714;-21
2022/01/17 06:19:09;;;;;;;72.38;36.00;;;;;;;-2.12;67.03;100616.25;5048619;28;20060;-21
2022/01/17 06:21:34;;;;;;;46.20;25.80;;;;;;;-2.76;69.16;100616.09;5049230;28;20028;-21
2022/01/17 06:24:02;;;;;;;59.80;31.77;;;;;;;-3.10;70.86;100608.28;5066968;28;20043;-21
2022/01/17 06:26:28;;;;;;;64.20;35.03;;;;;;;-2.43;69.58;100603.03;5067005;28;20111;-22
2022/01/17 06:28:53;;;;;;;99.03;44.22;;;;;;;-2.21;68.65;100609.13;5067438;28;20048;-21
2022/01/17 06:31:19;;;;;;;74.68;35.40;;;;;;;-2.52;69.75;100590.69;5066918;28;20691;-22
2022/01/17 06:33:44;;;;;;;60.55;32.10;;;;;;;-2.55;70.03;100582.28;5067157;28;20032;-21
2022/01/17 06:36:09;;;;;;;55.40;30.42;;;;;;;-1.74;68.29;100601.84;5032568;28;20423;-21
2022/01/17 06:38:35;;;;;;;47.40;25.88;;;;;;;-2.06;69.06;100602.69;5067128;28;20081;-21
2022/01/17 06:41:01;;;;;;;48.97;24.85;;;;;;;-2.22;70.35;100610.09;5066574;28;20035;-20
2022/01/17 06:43:26;;;;;;;56.25;27.17;;;;;;;-2.26;70.66;100603.47;5067170;28;20032;-20
2022/01/17 06:45:51;;;;;;;58.72;31.80;;;;;;;-2.26;71.18;100586.00;5067123;28;20040;-21
2022/01/17 06:48:17;;;;;;;71.57;36.08;;;;;;;-2.74;73.57;100593.31;5067008;28;20476;-21
2022/01/17 06:50:42;;;;;;;62.05;33.22;;;;;;;-2.77;73.60;100568.28;5066758;28;20040;-21
2022/01/17 06:53:08;;;;;;;57.10;29.65;;;;;;;-2.46;72.36;100582.38;5066552;28;20043;-21
2022/01/17 06:55:33;;;;;;;51.53;28.65;;;;;;;-1.85;71.15;100584.44;5066545;28;20045;-21
2022/01/17 06:57:59;;;;;;;49.83;27.17;;;;;;;-1.60;69.42;100599.88;5066733;28;20057;-21
2022/01/17 07:00:24;;;;;;;52.63;29.15;;;;;;;-1.23;69.26;100588.03;5066821;28;20082;-21
2022/01/17 07:02:50;;;;;;;55.25;30.52;;;;;;;-1.14;69.85;100602.09;5066639;28;20138;-21
2022/01/17 07:05:15;;;;;;;49.45;27.95;;;;;;;-1.03;69.47;100581.06;5066545;28;20055;-21
2022/01/17 07:07:41;;;;;;;47.42;25.52;;;;;;;-0.92;68.46;100595.88;5066564;28;20508;-21
2022/01/17 07:10:06;;;;;;;44.70;23.17;;;;;;;-0.90;70.10;100578.25;5066619;28;20066;-21
2022/01/17 07:12:35;;;;;;;46.72;26.75;;;;;;;-0.64;69.21;100575.16;5066800;28;20075;-20
2022/01/17 07:15:00;;;;;;;;;;;;;;;-0.33;68.38;100580.31;5067004;28;20024;-21
2022/01/17 07:17:26;;;;;;;46.42;24.20;;;;;;;-0.50;68.33;100574.78;5066618;28;19981;-21
2022/01/17 07:19:51;;;;;;;50.17;26.15;;;;;;;-0.60;69.99;100571.31;5066502;28;20056;-21
2022/01/17 07:22:16;;;;;;;84.00;49.88;;;;;;;-0.57;68.83;100563.19;5066445;28;20039;-21
2022/01/17 07:24:44;;;;;;;48.65;26.85;;;;;;;-0.57;70.08;100563.19;5048150;28;20036;-21
2022/01/17 07:27:10;;;;;;;294.83;174.15;;;;;;;-0.27;69.43;100571.91;5066415;28;20044;-21
2022/01/17 07:29:36;;;;;;;58.28;33.08;;;;;;;-0.30;68.94;100546.00;5066849;28;20040;-21
2022/01/17 07:32:01;;;;;;;121.70;71.68;;;;;;;-0.06;69.69;100567.41;5048696;28;20016;-21
2022/01/17 07:34:27;;;;;;;84.15;48.17;;;;;;;0.15;68.55;100569.06;5066509;28;20053;-21
2022/01/17 07:36:52;;;;;;;52.72;31.73;;;;;;;0.18;67.88;100560.88;5066534;28;20032;-20
2022/01/17 07:39:18;;;;;;;45.17;24.40;;;;;;;0.40;67.83;100544.84;5066057;28;20511;-23
2022/01/17 07:41:43;;;;;;;47.45;25.55;;;;;;;0.54;66.67;100529.63;5067482;28;20032;-21
2022/01/17 07:44:18;;;;;;;52.80;31.13;;;;;;;0.78;67.34;100545.72;5070344;28;20055;-21
2022/01/17 07:46:54;;;;;;;46.10;26.75;;;;;;;0.62;67.59;100528.94;5070298;28;20032;-21
2022/01/17 07:49:19;;;;;;;44.72;22.50;;;;;;;0.25;68.53;100517.41;5069763;28;20123;-21
2022/01/17 07:51:59;;;;;;;44.83;24.38;;;;;;;0.64;67.83;100527.81;5069591;28;20039;-21
2022/01/17 07:54:25;;;;;;;50.75;26.95;;;;;;;0.57;69.09;100526.72;5070024;28;20036;-21
2022/01/17 07:56:50;;;;;;;48.90;28.02;;;;;;;0.62;69.45;100531.56;5035391;28;20408;-21
2022/01/17 07:59:16;;;;;;;47.20;26.70;;;;;;;0.32;69.88;100543.91;5069729;28;20033;-21
2022/01/17 08:01:41;;;;;;;49.13;27.48;;;;;;;0.53;68.05;100552.44;5069662;28;20458;-20
2022/01/17 08:04:07;;;;;;;45.90;25.05;;;;;;;0.92;68.09;100535.72;5069800;28;20086;-21
2022/01/17 08:06:38;;;;;;;45.70;24.20;;;;;;;0.95;67.73;100556.44;5069834;28;20071;-22
2022/01/17 08:09:11;;;;;;;50.80;26.05;;;;;;;0.97;67.67;100549.25;5052491;28;20111;-21
2022/01/17 08:11:37;;;;;;;45.22;25.45;;;;;;;1.06;67.98;100579.88;5069644;28;20228;-20
2022/01/17 08:14:02;;;;;;;47.47;25.88;;;;;;;1.11;66.99;100574.22;5069636;28;20040;-20
2022/01/17 08:16:28;;;;;;;62.72;34.72;;;;;;;1.75;65.84;100607.47;5069153;28;20028;-21
2022/01/17 08:18:53;;;;;;;43.47;24.25;;;;;;;1.70;65.55;100624.69;5069015;28;20397;-21
2022/01/17 08:21:19;;;;;;;78.53;46.42;;;;;;;1.74;65.80;100640.03;5069031;28;20029;-21
2022/01/17 08:23:44;;;;;;;51.58;27.90;;;;;;;1.82;65.05;100647.19;5069170;28;20105;-22
2022/01/17 08:26:10;;;;;;;43.97;25.63;;;;;;;1.60;63.75;100657.09;5069391;28;20083;-21
2022/01/17 08:28:35;;;;;;;46.47;27.30;;;;;;;1.64;64.61;100672.59;5051209;28;20055;-20
2022/01/17 08:31:01;;;;;;;52.58;28.77;;;;;;;2.13;64.18;100660.81;5068804;28;20420;-21
2022/01/17 08:33:26;;;;;;;61.20;33.15;;;;;;;5.59;71.52;100619.34;5068824;28;20029;-21
2022/01/17 08:35:52;;;;;;;44.25;27.67;;;;;;;9.69;49.75;100634.59;5069355;28;20016;-21
2022/01/17 08:38:17;;;;;;;48.22;30.88;;;;;;;6.48;49.12;100615.50;5069266;28;20044;-21
2022/01/17 08:40:43;;;;;;;42.45;26.33;;;;;;;4.66;53.59;100605.91;5068741;28;20048;-21
2022/01/17 08:43:08;;;;;;;51.25;28.38;;;;;;;3.53;57.98;100604.63;5068763;28;20114;-21
2022/01/17 08:45:33;;;;;;;68.75;37.15;;;;;;;2.89;60.51;100577.00;5068895;28;20032;-21
2022/01/17 08:47:59;;;;;;;55.90;29.17;;;;;;;2.81;60.54;100541.72;5068721;28;20032;-20
2022/01/17 08:50:24;;;;;;;48.67;27.48;;;;;;;3.05;60.62;100563.91;5068708;28;20035;-20
2022/01/17 08:52:50;;;;;;;47.55;27.80;;;;;;;2.91;60.80;100577.66;5068376;28;20041;-20
2022/01/17 08:55:16;;;;;;;45.65;27.05;;;;;;;2.96;60.35;100543.75;5068263;28;20078;-20
2022/01/17 08:57:42;;;;;;;47.40;27.85;;;;;;;2.73;62.10;100509.25;5050720;28;20735;-20
2022/01/17 09:00:10;;;;;;;46.15;26.13;;;;;;;2.74;61.47;100487.19;5050572;28;20060;-21
2022/01/17 09:02:36;;;;;;;41.33;24.60;;;;;;;2.92;61.88;100479.19;5068255;28;20032;-21
2022/01/17 09:05:01;;;;;;;44.45;24.58;;;;;;;2.76;61.57;100501.84;5068341;28;20031;-21
2022/01/17 09:07:27;;;;;;;50.20;26.73;;;;;;;2.89;63.28;100490.06;5068249;28;20036;-20
2022/01/17 09:09:52;;;;;;;40.90;23.17;;;;;;;2.69;62.83;100482.38;5068446;28;20024;-20
2022/01/17 09:12:17;;;;;;;41.80;23.73;;;;;;;2.86;61.08;100448.22;5068279;28;20033;-20
2022/01/17 09:14:43;;;;;;;43.53;24.65;;;;;;;2.89;61.32;100443.47;5068431;28;20512;-21
2022/01/17 09:17:09;;;;;;;40.47;24.58;;;;;;;3.11;61.15;100452.59;5067805;28;20041;-22
2022/01/17 09:19:35;;;;;;;42.58;24.23;;;;;;;3.54;59.79;100458.59;5068443;28;20075;-21
2022/01/17 09:22:01;;;;;;;39.65;23.38;;;;;;;3.28;59.90;100460.53;5068376;28;20553;-20
2022/01/17 09:24:26;;;;;;;43.88;24.13;;;;;;;3.61;59.48;100453.50;5068383;28;20655;-21
2022/01/17 09:26:52;;;;;;;32.42;18.48;;;;;;;3.41;58.82;100430.09;5050278;28;20083;-21
2022/01/17 09:29:17;;;;;;;36.35;20.90;;;;;;;3.71;59.42;100467.34;5067801;28;20036;-21
2022/01/17 09:31:43;;;;;;;34.67;18.58;;;;;;;3.85;58.84;100434.22;5067911;28;20408;-20
2022/01/17 09:34:08;;;;;;;39.97;22.23;;;;;;;3.96;59.71;100441.81;5068039;28;20051;-20
2022/01/17 09:36:35;;;;;;;39.00;21.38;;;;;;;4.18;57.15;100413.06;5068111;28;20044;-20
2022/01/17 09:39:01;;;;;;;31.58;17.95;;;;;;;4.54;56.75;100412.63;5067599;28;20179;-20
2022/01/17 09:41:26;;;;;;;48.72;20.70;;;;;;;4.62;57.49;100396.75;5067898;28;20033;-21
2022/01/17 09:43:52;;;;;;;36.67;21.05;;;;;;;4.92;58.60;100389.00;5068402;28;20121;-21
2022/01/17 09:46:21;;;;;;;50.20;28.65;;;;;;;5.30;56.80;100404.97;5067429;28;20111;-20
2022/01/17 09:48:49;;;;;;;38.80;21.50;;;;;;;5.27;56.58;100413.22;5067745;28;20491;-22
2022/01/17 09:51:33;;;;;;;33.47;20.77;;;;;;;5.52;55.53;100406.78;5067409;28;20044;-20
2022/01/17 09:53:59;;;;;;;35.65;21.23;;;;;;;5.29;55.82;100390.91;5067360;28;20519;-21
2022/01/17 09:56:26;;;;;;;34.38;21.92;;;;;;;5.70;55.84;100376.50;5067665;28;20034;-21
2022/01/17 09:58:52;;;;;;;37.55;22.05;;;;;;;5.97;54.91;100399.78;5067337;28;20028;-20
2022/01/17 10:01:17;;;;;;;36.03;20.02;;;;;;;6.20;55.47;100401.56;5067316;28;20404;-21
2022/01/17 10:03:43;;;;;;;31.15;18.52;;;;;;;6.23;55.32;100393.22;5067428;28;20024;-20
2022/01/17 10:06:08;;;;;;;29.92;19.15;;;;;;;6.41;54.76;100380.44;5066914;28;20035;-21
2022/01/17 10:08:34;;;;;;;28.65;16.95;;;;;;;7.11;53.42;100385.31;5049458;28;20043;-20
2022/01/17 10:11:04;;;;;;;21.73;12.35;;;;;;;7.69;49.88;100377.31;5066987;28;20078;-20
2022/01/17 10:13:37;;;;;;;22.30;11.48;;;;;;;8.49;47.17;100373.31;5067069;28;20768;-21
2022/01/17 10:16:05;;;;;;;21.05;11.35;;;;;;;8.72;47.17;100367.69;5049272;28;20640;-21
2022/01/17 10:18:34;;;;;;;;;;;;;;;9.08;44.08;100366.56;5067673;28;20053;-21
2022/01/17 10:21:05;;;;;;;8.32;4.45;;;;;;;9.36;43.94;100323.03;5066967;28;19916;-20
2022/01/17 10:23:47;;;;;;;9.85;3.85;;;;;;;9.58;42.30;100289.84;5067122;28;20029;-20
2022/01/17 10:26:33;;;;;;;7.72;3.92;;;;;;;9.50;42.07;100290.06;5067263;28;20060;-20
2022/01/17 10:29:13;;;;;;;6.35;3.22;;;;;;;9.59;39.61;100287.97;5067031;28;20025;-20
2022/01/17 10:37:08;;;;;;;8.55;3.85;;;;;;;9.88;38.74;100268.06;5066980;28;20043;-20
2022/01/17 10:39:37;;;;;;;6.75;3.00;;;;;;;9.63;38.62;100276.72;5049051;28;20045;-21
2022/01/17 10:42:22;;;;;;;7.10;3.65;;;;;;;9.74;39.59;100259.25;5067308;28;20037;-21
2022/01/17 10:44:48;;;;;;;6.40;3.60;;;;;;;9.92;38.82;100277.25;5049428;28;20028;-21
2022/01/17 10:47:24;;;;;;;8.68;4.40;;;;;;;10.04;39.76;100285.44;5067156;28;20478;-20
2022/01/17 10:49:54;;;;;;;7.13;3.97;;;;;;;10.14;39.67;100279.66;5067014;28;20104;-20
2022/01/17 10:52:37;;;;;;;8.85;3.65;;;;;;;10.34;39.48;100285.75;5049601;28;20795;-20
2022/01/17 10:55:13;;;;;;;9.23;3.95;;;;;;;10.75;39.14;100295.19;5066324;28;20032;-20
2022/01/17 10:57:43;;;;;;;7.63;4.43;;;;;;;10.72;39.53;100276.13;5066903;28;20060;-21
2022/01/17 11:00:31;;;;;;;9.35;4.10;;;;;;;10.81;38.26;100275.66;5066767;28;20123;-21
2022/01/17 11:03:05;;;;;;;9.77;4.70;;;;;;;10.97;37.31;100273.50;5066619;28;20160;-20
2022/01/17 11:05:32;;;;;;;8.02;4.40;;;;;;;10.91;37.85;100279.69;5066858;28;20542;-21
2022/01/17 11:08:00;;;;;;;7.55;4.03;;;;;;;10.88;36.64;100275.63;5066936;28;20036;-20
2022/01/17 11:10:34;;;;;;;6.57;3.22;;;;;;;10.50;36.15;100259.63;5066847;28;20732;-20
2022/01/17 11:13:02;;;;;;;8.85;3.80;;;;;;;10.82;36.76;100234.59;5066573;28;20028;-20
2022/01/17 11:15:28;;;;;;;6.70;2.95;;;;;;;10.59;35.96;100237.03;5067233;28;20107;-20
2022/01/17 11:17:57;;;;;;;6.38;3.15;;;;;;;10.37;35.89;100237.34;5052540;28;20232;-21
2022/01/17 11:20:26;;;;;;;7.88;3.47;;;;;;;10.57;36.13;100205.22;5053001;28;20056;-20
2022/01/17 11:22:54;;;;;;;7.70;2.80;;;;;;;10.57;35.58;100221.22;5070843;28;20029;-21
2022/01/17 11:25:25;;;;;;;4.93;2.63;;;;;;;10.56;35.94;100232.94;5035863;28;20044;-21
2022/01/17 11:27:51;;;;;;;6.00;3.00;;;;;;;10.58;35.80;100204.22;5070361;28;20462;-20
2022/01/17 11:30:17;;;;;;;4.97;2.55;;;;;;;10.73;35.16;100209.22;5070400;28;20040;-20
2022/01/17 11:32:46;;;;;;;6.32;2.85;;;;;;;10.75;35.18;100225.84;5070016;28;20431;-20
2022/01/17 11:35:13;;;;;;;8.75;2.92;;;;;;;10.77;35.74;100231.78;5069971;28;20029;-20
2022/01/17 11:37:40;;;;;;;6.95;3.20;;;;;;;10.90;36.12;100209.50;5070288;28;20593;-20